sensor_id;sensor_type;location;lat;lon;timestamp;P1;durP1;ratioP1;P2;durP2;ratioP2
40629;SDS011;26329;40.388;-3.710;2022-10-30T00:08:01;13.33;;;3.67;;
40629;SDS011;26329;40.388;-3.710;2022-10-30T00:18:04;7.83;;;3.83;;
40629;SDS011;26329;40.388;-3.710;2022-10-30T00:28:07;10.70;;;3.83;;
40629;SDS011;26329;40.388;-3.710;2022-10-30T00:38:09;9.33;;;3.43;;
40629;SDS011;26329;40.388;-3.710;2022-10-30T00:48:12;16.00;;;3.60;;
40629;SDS011;26329;40.388;-3.710;2022-10-30T00:58:14;11.50;;;3.97;;
40629;SDS011;26329;40.388;-3.710;2022-10-30T01:08:21;14.43;;;3.83;;
40629;SDS011;26329;40.388;-3.710;2022-10-30T01:39:06;9.38;;;4.40;;
40629;SDS011;26329;40.388;-3.710;2022-10-30T02:00:00;15.05;;;5.43;;
40629;SDS011;26329;40.388;-3.710;2022-10-30T02:10:12;18.35;;;5.85;;
40629;SDS011;26329;40.388;-3.710;2022-10-30T02:20:25;10.55;;;4.47;;
40629;SDS011;26329;40.388;-3.710;2022-10-30T02:30:33;12.20;;;4.75;;
40629;SDS011;26329;40.388;-3.710;2022-10-30T02:40:56;11.38;;;3.67;;
40629;SDS011;26329;40.388;-3.710;2022-10-30T02:51:17;8.73;;;3.63;;
40629;SDS011;26329;40.388;-3.710;2022-10-30T03:01:31;9.73;;;3.25;;
40629;SDS011;26329;40.388;-3.710;2022-10-30T03:11:40;11.18;;;4.18;;
40629;SDS011;26329;40.388;-3.710;2022-10-30T03:21:54;8.05;;;4.00;;
40629;SDS011;26329;40.388;-3.710;2022-10-30T03:31:55;11.15;;;4.25;;
40629;SDS011;26329;40.388;-3.710;2022-10-30T03:42:02;10.10;;;3.60;;
40629;SDS011;26329;40.388;-3.710;2022-10-30T03:52:07;12.25;;;4.50;;
40629;SDS011;26329;40.388;-3.710;2022-10-30T04:02:12;10.13;;;4.63;;
40629;SDS011;26329;40.388;-3.710;2022-10-30T04:12:17;7.85;;;3.95;;
40629;SDS011;26329;40.388;-3.710;2022-10-30T04:22:21;5.80;;;3.53;;
40629;SDS011;26329;40.388;-3.710;2022-10-30T04:32:25;6.70;;;4.47;;
40629;SDS011;26329;40.388;-3.710;2022-10-30T04:42:29;8.43;;;3.90;;
40629;SDS011;26329;40.388;-3.710;2022-10-30T04:52:47;7.95;;;4.45;;
40629;SDS011;26329;40.388;-3.710;2022-10-30T05:02:50;6.72;;;3.20;;
40629;SDS011;26329;40.388;-3.710;2022-10-30T05:12:54;8.00;;;4.05;;
40629;SDS011;26329;40.388;-3.710;2022-10-30T05:33:00;10.30;;;3.88;;
40629;SDS011;26329;40.388;-3.710;2022-10-30T05:43:15;14.30;;;4.10;;
40629;SDS011;26329;40.388;-3.710;2022-10-30T05:53:17;9.30;;;4.30;;
40629;SDS011;26329;40.388;-3.710;2022-10-30T06:03:19;14.80;;;5.07;;
40629;SDS011;26329;40.388;-3.710;2022-10-30T06:13:22;13.57;;;4.80;;
40629;SDS011;26329;40.388;-3.710;2022-10-30T06:23:26;11.32;;;4.32;;
40629;SDS011;26329;40.388;-3.710;2022-10-30T06:33:37;7.00;;;4.53;;
40629;SDS011;26329;40.388;-3.710;2022-10-30T06:43:40;10.33;;;5.67;;
40629;SDS011;26329;40.388;-3.710;2022-10-30T06:53:42;12.60;;;5.45;;
40629;SDS011;26329;40.388;-3.710;2022-10-30T07:03:44;12.93;;;5.15;;
40629;SDS011;26329;40.388;-3.710;2022-10-30T07:13:55;11.70;;;4.68;;
40629;SDS011;26329;40.388;-3.710;2022-10-30T07:24:00;14.00;;;5.35;;
40629;SDS011;26329;40.388;-3.710;2022-10-30T07:34:02;15.85;;;5.28;;
40629;SDS011;26329;40.388;-3.710;2022-10-30T07:44:04;12.60;;;5.00;;
40629;SDS011;26329;40.388;-3.710;2022-10-30T07:54:07;17.07;;;6.07;;
40629;SDS011;26329;40.388;-3.710;2022-10-30T08:04:14;8.32;;;5.22;;
40629;SDS011;26329;40.388;-3.710;2022-10-30T08:14:18;20.42;;;6.05;;
40629;SDS011;26329;40.388;-3.710;2022-10-30T08:24:21;20.50;;;6.93;;
40629;SDS011;26329;40.388;-3.710;2022-10-30T08:34:23;14.82;;;6.65;;
40629;SDS011;26329;40.388;-3.710;2022-10-30T08:44:31;13.23;;;6.93;;
40629;SDS011;26329;40.388;-3.710;2022-10-30T08:54:33;14.83;;;6.93;;
40629;SDS011;26329;40.388;-3.710;2022-10-30T09:04:39;14.80;;;4.85;;
40629;SDS011;26329;40.388;-3.710;2022-10-30T09:14:41;13.45;;;5.07;;
40629;SDS011;26329;40.388;-3.710;2022-10-30T09:24:46;17.52;;;5.38;;
40629;SDS011;26329;40.388;-3.710;2022-10-30T09:34:48;10.07;;;5.37;;
40629;SDS011;26329;40.388;-3.710;2022-10-30T10:05:52;10.93;;;6.47;;
40629;SDS011;26329;40.388;-3.710;2022-10-30T10:16:04;12.63;;;6.32;;
40629;SDS011;26329;40.388;-3.710;2022-10-30T10:26:30;49.90;;;9.57;;
40629;SDS011;26329;40.388;-3.710;2022-10-30T10:57:34;27.27;;;9.18;;
40629;SDS011;26329;40.388;-3.710;2022-10-30T11:07:48;12.77;;;7.07;;
40629;SDS011;26329;40.388;-3.710;2022-10-30T11:18:04;15.32;;;8.10;;
40629;SDS011;26329;40.388;-3.710;2022-10-30T11:28:11;29.35;;;16.27;;
40629;SDS011;26329;40.388;-3.710;2022-10-30T11:38:53;19.85;;;9.35;;
40629;SDS011;26329;40.388;-3.710;2022-10-30T11:49:22;19.40;;;9.57;;
40629;SDS011;26329;40.388;-3.710;2022-10-30T11:59:37;14.85;;;8.45;;
40629;SDS011;26329;40.388;-3.710;2022-10-30T12:09:46;24.33;;;12.32;;
40629;SDS011;26329;40.388;-3.710;2022-10-30T12:19:52;17.92;;;10.00;;
40629;SDS011;26329;40.388;-3.710;2022-10-30T12:30:05;17.80;;;9.70;;
40629;SDS011;26329;40.388;-3.710;2022-10-30T12:40:20;14.93;;;9.50;;
40629;SDS011;26329;40.388;-3.710;2022-10-30T12:50:51;15.85;;;9.07;;
40629;SDS011;26329;40.388;-3.710;2022-10-30T13:11:41;17.75;;;10.00;;
40629;SDS011;26329;40.388;-3.710;2022-10-30T13:32:33;16.77;;;9.48;;
40629;SDS011;26329;40.388;-3.710;2022-10-30T13:53:23;17.42;;;10.15;;
40629;SDS011;26329;40.388;-3.710;2022-10-30T14:13:44;24.85;;;13.60;;
40629;SDS011;26329;40.388;-3.710;2022-10-30T14:45:00;25.55;;;10.57;;
40629;SDS011;26329;40.388;-3.710;2022-10-30T15:05:35;22.33;;;12.30;;
40629;SDS011;26329;40.388;-3.710;2022-10-30T15:16:01;16.55;;;9.70;;
40629;SDS011;26329;40.388;-3.710;2022-10-30T15:26:18;20.58;;;11.48;;
40629;SDS011;26329;40.388;-3.710;2022-10-30T15:36:33;16.35;;;10.65;;
40629;SDS011;26329;40.388;-3.710;2022-10-30T15:46:52;14.05;;;9.18;;
40629;SDS011;26329;40.388;-3.710;2022-10-30T15:56:56;21.70;;;9.98;;
40629;SDS011;26329;40.388;-3.710;2022-10-30T16:06:59;24.27;;;10.38;;
40629;SDS011;26329;40.388;-3.710;2022-10-30T16:17:04;18.25;;;9.70;;
40629;SDS011;26329;40.388;-3.710;2022-10-30T16:27:19;16.42;;;10.38;;
40629;SDS011;26329;40.388;-3.710;2022-10-30T16:37:24;20.52;;;10.15;;
40629;SDS011;26329;40.388;-3.710;2022-10-30T16:47:42;11.27;;;4.77;;
40629;SDS011;26329;40.388;-3.710;2022-10-30T16:57:46;20.85;;;10.65;;
40629;SDS011;26329;40.388;-3.710;2022-10-30T17:08:01;21.00;;;10.95;;
40629;SDS011;26329;40.388;-3.710;2022-10-30T17:18:27;20.75;;;10.40;;
40629;SDS011;26329;40.388;-3.710;2022-10-30T17:28:35;23.33;;;12.30;;
40629;SDS011;26329;40.388;-3.710;2022-10-30T17:38:40;20.30;;;9.98;;
40629;SDS011;26329;40.388;-3.710;2022-10-30T17:48:44;18.40;;;9.70;;
40629;SDS011;26329;40.388;-3.710;2022-10-30T17:58:50;18.45;;;8.95;;
40629;SDS011;26329;40.388;-3.710;2022-10-30T18:08:52;23.10;;;9.82;;
40629;SDS011;26329;40.388;-3.710;2022-10-30T18:18:55;24.25;;;9.85;;
40629;SDS011;26329;40.388;-3.710;2022-10-30T18:29:02;22.42;;;9.82;;
40629;SDS011;26329;40.388;-3.710;2022-10-30T18:39:04;20.27;;;8.85;;
40629;SDS011;26329;40.388;-3.710;2022-10-30T18:49:06;29.47;;;11.63;;
40629;SDS011;26329;40.388;-3.710;2022-10-30T18:59:08;24.92;;;11.80;;
40629;SDS011;26329;40.388;-3.710;2022-10-30T19:09:09;31.13;;;11.40;;
40629;SDS011;26329;40.388;-3.710;2022-10-30T19:19:11;20.80;;;9.07;;
40629;SDS011;26329;40.388;-3.710;2022-10-30T19:29:18;15.07;;;8.18;;
40629;SDS011;26329;40.388;-3.710;2022-10-30T19:39:20;14.75;;;8.38;;
40629;SDS011;26329;40.388;-3.710;2022-10-30T19:49:22;22.13;;;9.50;;
40629;SDS011;26329;40.388;-3.710;2022-10-30T19:59:23;17.38;;;9.35;;
40629;SDS011;26329;40.388;-3.710;2022-10-30T20:09:25;19.20;;;10.70;;
40629;SDS011;26329;40.388;-3.710;2022-10-30T20:19:28;15.23;;;8.88;;
40629;SDS011;26329;40.388;-3.710;2022-10-30T20:29:31;38.67;;;20.90;;
40629;SDS011;26329;40.388;-3.710;2022-10-30T20:39:34;16.63;;;8.73;;
40629;SDS011;26329;40.388;-3.710;2022-10-30T20:49:36;19.63;;;9.07;;
40629;SDS011;26329;40.388;-3.710;2022-10-30T20:59:38;17.00;;;11.87;;
40629;SDS011;26329;40.388;-3.710;2022-10-30T21:09:40;18.58;;;9.23;;
40629;SDS011;26329;40.388;-3.710;2022-10-30T21:19:42;19.85;;;9.35;;
40629;SDS011;26329;40.388;-3.710;2022-10-30T21:29:44;12.68;;;8.82;;
40629;SDS011;26329;40.388;-3.710;2022-10-30T21:39:46;17.35;;;9.07;;
40629;SDS011;26329;40.388;-3.710;2022-10-30T21:49:47;19.73;;;9.18;;
40629;SDS011;26329;40.388;-3.710;2022-10-30T21:59:52;19.13;;;10.40;;
40629;SDS011;26329;40.388;-3.710;2022-10-30T22:09:53;11.07;;;8.95;;
40629;SDS011;26329;40.388;-3.710;2022-10-30T22:19:55;15.57;;;8.50;;
40629;SDS011;26329;40.388;-3.710;2022-10-30T22:29:56;12.90;;;7.97;;
40629;SDS011;26329;40.388;-3.710;2022-10-30T22:39:58;14.88;;;8.52;;
40629;SDS011;26329;40.388;-3.710;2022-10-30T22:50:00;13.80;;;8.05;;
40629;SDS011;26329;40.388;-3.710;2022-10-30T23:00:02;17.55;;;9.00;;
40629;SDS011;26329;40.388;-3.710;2022-10-30T23:10:05;13.45;;;8.75;;
40629;SDS011;26329;40.388;-3.710;2022-10-30T23:20:08;18.17;;;9.25;;
40629;SDS011;26329;40.388;-3.710;2022-10-30T23:30:10;18.45;;;10.57;;
40629;SDS011;26329;40.388;-3.710;2022-10-30T23:40:12;16.00;;;10.02;;
40629;SDS011;26329;40.388;-3.710;2022-10-30T23:50:14;21.75;;;11.05;;
